Stations météo

réclame
Mon MeteoGroup
Isola Stromboli, Italie (16416): Température de l'air & dewpoint: 01.08.2020 06:00:00 - 07.08.2020 06:00:00 (CEST)Isola Stromboli, Italie (16416): Vitesse du vent: 01.08.2020 06:00:00 - 07.08.2020 06:00:00 (CEST)Isola Stromboli, Italie (16416): Direction du vent: 01.08.2020 06:00:00 - 07.08.2020 06:00:00 (CEST)Isola Stromboli, Italie (16416): reduced air pressure: 01.08.2020 06:00:00 - 07.08.2020 06:00:00 (CEST)Isola Stromboli, Italie (16416): Quantités de précipitations: 01.08.2020 06:00:00 - 07.08.2020 06:00:00 (CEST)
Date & Time tt [°C] td [°C] ff [km/h] ff [knt] dd ppp [hPa] rr [mm]
07.08.2020 06:00:00 - - - - - - -
07.08.2020 05:00:00 24,4 20,7 16 9 S 1012,9 -
07.08.2020 04:00:00 24,0 20,3 11 6 S 1013,1 -
07.08.2020 03:00:00 24,4 20,9 13 7 S 1013,4 -
07.08.2020 02:00:00 24,3 21,4 16 9 S 1013,6 0,0
07.08.2020 01:00:00 23,6 21,2 21 11 S 1013,6 -
07.08.2020 00:00:00 21,2 19,3 8 4 S 1013,9 -
06.08.2020 23:00:00 24,5 19,7 13 7 S 1013,6 -
06.08.2020 22:00:00 24,3 20,4 13 7 S 1013,7 -
06.08.2020 21:00:00 24,5 18,4 11 6 S 1013,2 -
06.08.2020 20:00:00 25,0 18,8 15 8 S 1012,8 0,0
06.08.2020 19:00:00 25,4 19,2 18 10 S 1012,5 -
06.08.2020 18:00:00 25,3 19,1 26 14 S 1012,2 -
06.08.2020 17:00:00 25,3 19,4 26 14 S 1011,6 -
06.08.2020 16:00:00 25,8 19,1 24 13 S 1011,7 -
06.08.2020 15:00:00 26,0 19,6 22 12 S 1011,7 -
06.08.2020 14:00:00 25,8 19,6 21 11 S 1011,8 0,0
06.08.2020 13:00:00 24,5 19,3 16 9 S 1011,9 -
06.08.2020 12:00:00 25,7 18,8 18 10 S 1011,5 -
06.08.2020 11:00:00 25,6 19,4 18 10 S 1011,5 -
06.08.2020 10:00:00 25,2 17,8 18 10 S 1010,8 -
06.08.2020 09:00:00 24,3 19,1 16 9 S 1010,5 -
06.08.2020 08:00:00 23,5 19,2 21 11 S 1010,3 0,0
06.08.2020 07:00:00 23,2 18,5 13 7 S 1010,0 -
06.08.2020 06:00:00 23,0 18,7 16 9 S 1009,6 -
06.08.2020 05:00:00 22,3 19,0 13 7 S 1009,2 -
06.08.2020 04:00:00 22,2 18,9 16 9 S 1009,4 -
06.08.2020 03:00:00 21,3 19,2 9 5 S 1009,6 -
06.08.2020 02:00:00 22,4 19,5 5 3 S 1009,6 0,0
06.08.2020 01:00:00 23,2 19,3 15 8 S 1009,5 -
06.08.2020 00:00:00 22,8 19,5 11 6 S 1009,5 -
05.08.2020 23:00:00 21,9 18,4 15 8 S 1009,3 -
05.08.2020 22:00:00 22,6 19,7 15 8 S 1009,4 -
05.08.2020 21:00:00 24,1 18,4 4 2 S 1008,9 -
05.08.2020 20:00:00 24,6 17,8 15 8 S 1008,7 0,0
05.08.2020 19:00:00 25,2 18,1 18 10 S 1008,7 -
05.08.2020 18:00:00 26,1 17,9 16 9 S 1008,6 -
05.08.2020 17:00:00 26,6 18,7 15 8 S 1008,6 -
05.08.2020 16:00:00 25,7 18,8 18 10 S 1008,6 -
05.08.2020 15:00:00 25,5 20,0 16 9 S 1008,7 -
05.08.2020 14:00:00 24,4 22,2 8 4 S 1008,8 0,0
05.08.2020 13:00:00 26,1 20,1 15 8 S 1009,0 -
05.08.2020 12:00:00 25,1 20,3 5 3 S 1008,9 -
05.08.2020 11:00:00 25,8 18,9 13 7 S 1008,6 -
05.08.2020 10:00:00 25,7 19,3 16 9 S 1008,2 -
05.08.2020 09:00:00 26,5 18,3 21 11 S 1007,9 -
05.08.2020 08:00:00 26,1 18,4 24 13 S 1007,3 0,0
05.08.2020 07:00:00 25,7 19,8 22 12 S 1006,9 -
05.08.2020 06:00:00 25,2 17,3 9 5 S 1006,9 -
05.08.2020 05:00:00 25,5 18,9 11 6 S 1007,1 -
05.08.2020 04:00:00 25,4 19,5 5 3 S 1007,4 -
05.08.2020 03:00:00 25,6 19,7 5 3 S 1007,7 -
05.08.2020 02:00:00 25,7 19,5 9 5 S 1008,1 0,0
05.08.2020 01:00:00 25,3 20,7 8 4 S 1008,3 -
05.08.2020 00:00:00 24,7 21,2 8 4 S 1008,8 -
04.08.2020 23:00:00 25,5 20,2 2 1 S 1008,9 -
04.08.2020 22:00:00 26,3 20,6 15 8 S 1009,1 -
04.08.2020 21:00:00 26,6 20,4 16 9 S 1008,8 -
04.08.2020 20:00:00 27,0 21,5 24 13 S 1008,3 0,0
04.08.2020 19:00:00 27,3 22,4 22 12 S 1008,4 -
04.08.2020 18:00:00 27,7 24,3 22 12 S 1007,7 -
04.08.2020 17:00:00 28,4 24,1 21 11 S 1007,5 -
04.08.2020 16:00:00 30,8 23,9 16 9 S 1007,3 -
04.08.2020 15:00:00 30,2 25,2 22 12 S 1007,9 -
04.08.2020 14:00:00 30,1 25,8 21 11 S 1007,9 0,0
04.08.2020 13:00:00 29,8 26,6 18 10 S 1008,1 -
04.08.2020 12:00:00 30,7 26,0 21 11 S 1008,1 -
04.08.2020 11:00:00 31,5 26,3 8 4 S 1007,1 -
04.08.2020 10:00:00 31,9 26,9 9 5 S 1006,8 -
04.08.2020 09:00:00 29,4 25,8 13 7 S 1006,9 -
04.08.2020 08:00:00 27,9 26,1 2 1 S 1007,3 0,0
04.08.2020 07:00:00 27,3 25,3 4 2 S 1007,2 -
04.08.2020 06:00:00 27,4 25,4 5 3 S 1007,2 -
04.08.2020 05:00:00 26,9 26,0 9 5 S 1007,2 -
04.08.2020 04:00:00 27,2 26,1 13 7 S 1007,8 -
04.08.2020 03:00:00 27,9 27,2 16 9 S 1008,1 -
04.08.2020 02:00:00 27,3 26,1 5 3 S 1008,3 0,0
04.08.2020 01:00:00 26,6 25,3 8 4 S 1008,1 -
04.08.2020 00:00:00 26,7 25,1 4 2 S 1008,3 -
03.08.2020 23:00:00 27,3 25,3 5 3 S 1008,0 -
03.08.2020 22:00:00 27,6 25,0 8 4 S 1007,7 -
03.08.2020 21:00:00 27,7 24,3 4 2 S 1007,0 -
03.08.2020 20:00:00 28,8 24,7 13 7 S 1006,8 0,0
03.08.2020 19:00:00 30,3 25,3 2 1 S 1006,9 -
03.08.2020 18:00:00 30,8 26,3 9 5 S 1007,1 -
03.08.2020 17:00:00 31,1 27,0 4 2 S 1007,0 -
03.08.2020 16:00:00 30,6 27,2 9 5 S 1007,4 -
03.08.2020 15:00:00 31,0 27,6 13 7 S 1007,8 -
03.08.2020 14:00:00 30,7 27,5 11 6 S 1008,4 0,0
03.08.2020 13:00:00 30,8 27,2 8 4 S 1008,9 -
03.08.2020 12:00:00 30,5 27,5 8 4 S 1009,0 -
03.08.2020 11:00:00 30,0 27,8 8 4 S 1009,3 -
03.08.2020 10:00:00 29,6 28,5 11 6 S 1009,3 -
03.08.2020 09:00:00 28,8 28,3 9 5 S 1009,2 -
03.08.2020 08:00:00 27,7 27,7 5 3 S 1009,0 0,0
03.08.2020 07:00:00 25,9 25,9 0 0 N 1009,2 -
03.08.2020 06:00:00 25,5 25,4 2 1 S 1009,2 -
03.08.2020 05:00:00 25,7 25,1 5 3 S 1009,1 -
03.08.2020 04:00:00 26,4 25,7 5 3 S 1009,5 -
03.08.2020 03:00:00 26,8 25,2 4 2 S 1009,8 -
03.08.2020 02:00:00 26,4 20,0 4 2 S 1010,0 0,0
03.08.2020 01:00:00 25,4 21,2 4 2 S 1010,3 -
03.08.2020 00:00:00 26,1 25,0 4 2 S 1010,4 -
02.08.2020 23:00:00 26,4 25,9 9 5 S 1010,6 -
02.08.2020 22:00:00 26,6 26,1 4 2 S 1011,0 -
02.08.2020 21:00:00 26,9 25,7 4 2 S 1010,5 -
02.08.2020 20:00:00 27,8 26,0 5 3 S 1010,1 0,0
02.08.2020 19:00:00 28,7 26,1 9 5 S 1009,9 -
02.08.2020 18:00:00 29,2 26,4 8 4 S 1009,9 -
02.08.2020 17:00:00 29,5 26,9 11 6 S 1010,2 -
02.08.2020 16:00:00 29,8 26,8 13 7 S 1010,5 -
02.08.2020 15:00:00 30,7 27,3 13 7 S 1010,9 -
02.08.2020 14:00:00 30,4 26,8 15 8 S 1011,2 0,0
02.08.2020 13:00:00 31,0 27,4 9 5 S 1011,4 -
02.08.2020 12:00:00 30,5 26,9 13 7 S 1011,4 -
02.08.2020 11:00:00 30,3 26,0 11 6 S 1011,2 -
02.08.2020 10:00:00 30,3 26,7 5 3 S 1011,0 -
02.08.2020 09:00:00 29,3 26,7 5 3 S 1011,0 -
02.08.2020 08:00:00 28,3 27,1 4 2 S 1010,9 0,0
02.08.2020 07:00:00 26,6 25,9 0 0 N 1010,6 -
02.08.2020 06:00:00 26,1 25,2 4 2 S 1010,5 -
02.08.2020 05:00:00 26,4 25,5 8 4 S 1010,5 -
02.08.2020 04:00:00 26,3 25,0 8 4 S 1010,5 -
02.08.2020 03:00:00 26,8 25,3 9 5 S 1010,7 -
02.08.2020 02:00:00 26,3 21,7 4 2 S 1011,1 0,0
02.08.2020 01:00:00 26,9 22,5 8 4 S 1011,4 -
02.08.2020 00:00:00 27,8 19,8 8 4 S 1011,6 -
01.08.2020 23:00:00 28,0 20,8 8 4 S 1011,6 -
01.08.2020 22:00:00 27,2 21,0 2 1 S 1011,4 -
01.08.2020 21:00:00 27,6 20,6 11 6 S 1011,0 -
01.08.2020 20:00:00 28,3 24,7 16 9 S 1011,7 0,0
01.08.2020 19:00:00 29,1 24,8 16 9 S 1011,2 -
01.08.2020 18:00:00 29,6 24,0 16 9 S 1011,3 -
01.08.2020 17:00:00 30,3 24,2 16 9 S 1011,6 -
01.08.2020 16:00:00 31,2 21,6 15 8 S 1011,9 -
01.08.2020 15:00:00 31,5 23,3 11 6 S 1012,4 -
01.08.2020 14:00:00 31,4 25,2 8 4 S 1013,0 0,0
01.08.2020 13:00:00 30,6 24,5 21 11 S 1013,2 -
01.08.2020 12:00:00 30,1 26,1 5 3 S 1013,8 -
01.08.2020 11:00:00 30,0 26,0 8 4 S 1014,1 -
01.08.2020 10:00:00 29,9 26,9 9 5 S 1014,1 -
01.08.2020 09:00:00 29,1 26,7 4 2 S 1014,1 -
01.08.2020 08:00:00 27,9 26,8 5 3 S 1013,9 0,0
01.08.2020 07:00:00 25,8 25,1 0 0 N 1013,7 -
01.08.2020 06:00:00 25,2 24,1 8 4 S 1013,8 -

tt = Température de l'air
td = dewpoint
ff = Vitesse du vent
dd = Direction du vent
ppp = reduced air pressure
rr = Quantités de précipitations

stations d'obs. à proximité